createdAt,value
2023-04-08T00:02:05.900Z,15.90
2023-04-08T00:04:37.144Z,15.80
2023-04-08T00:07:08.105Z,15.70
2023-04-08T00:09:38.980Z,15.60
2023-04-08T00:12:10.161Z,15.60
2023-04-08T00:14:41.640Z,15.60
2023-04-08T00:17:12.688Z,15.90
2023-04-08T00:19:44.796Z,16.00
2023-04-08T00:22:15.774Z,16.00
2023-04-08T00:24:46.614Z,16.10
2023-04-08T00:27:17.500Z,15.70
2023-04-08T00:29:48.477Z,15.70
2023-04-08T00:32:19.421Z,15.90
2023-04-08T00:34:51.001Z,15.80
2023-04-08T00:37:23.239Z,15.90
2023-04-08T00:39:54.298Z,16.20
2023-04-08T00:42:25.380Z,16.00
2023-04-08T00:44:56.929Z,16.00
2023-04-08T00:47:27.965Z,15.90
2023-04-08T00:49:59.226Z,15.90
2023-04-08T00:52:30.098Z,15.80
2023-04-08T00:55:01.052Z,15.90
2023-04-08T00:57:32.098Z,15.90
2023-04-08T01:00:07.873Z,16.00
2023-04-08T01:03:09.332Z,16.00
2023-04-08T01:06:47.153Z,15.50
2023-04-08T01:09:21.628Z,15.80
2023-04-08T01:11:54.026Z,15.50
2023-04-08T01:14:28.381Z,15.70
2023-04-08T01:17:01.004Z,15.40
2023-04-08T01:19:37.971Z,15.80
2023-04-08T01:22:49.953Z,15.40
2023-04-08T01:25:34.968Z,15.60
2023-04-08T01:28:11.376Z,15.60
2023-04-08T01:30:43.617Z,15.60
2023-04-08T01:33:17.398Z,15.40
2023-04-08T01:35:48.813Z,15.80
2023-04-08T01:38:21.665Z,16.00
2023-04-08T01:40:53.598Z,15.90
2023-04-08T01:43:26.224Z,15.90
2023-04-08T01:45:58.481Z,15.80
2023-04-08T01:48:30.647Z,15.90
2023-04-08T01:51:02.715Z,15.80
2023-04-08T01:53:34.184Z,15.80
2023-04-08T01:56:13.502Z,15.90
2023-04-08T01:58:52.779Z,16.00
2023-04-08T02:01:27.392Z,15.90
2023-04-08T02:03:59.713Z,16.00
2023-04-08T02:06:32.094Z,15.70
2023-04-08T02:09:03.111Z,15.90
2023-04-08T02:11:33.992Z,15.30
2023-04-08T02:14:05.010Z,15.50
2023-04-08T02:16:45.068Z,15.50
2023-04-08T02:19:25.208Z,15.70
2023-04-08T02:22:04.256Z,15.30
2023-04-08T02:24:37.628Z,15.50
2023-04-08T02:27:11.043Z,15.70
2023-04-08T02:29:42.570Z,15.60
2023-04-08T02:32:14.847Z,15.30
2023-04-08T02:34:46.644Z,15.60
2023-04-08T02:37:17.694Z,15.20
2023-04-08T02:39:48.584Z,15.60
2023-04-08T02:42:19.562Z,16.00
2023-04-08T02:44:52.095Z,15.40
2023-04-08T02:47:23.005Z,15.60
2023-04-08T02:49:55.301Z,15.60
2023-04-08T02:52:26.176Z,15.50
2023-04-08T02:54:57.061Z,16.00
2023-04-08T02:57:28.226Z,16.30
2023-04-08T02:59:59.093Z,15.90
2023-04-08T03:02:30.085Z,15.60
2023-04-08T03:05:01.244Z,15.60
2023-04-08T03:07:33.051Z,15.60
2023-04-08T03:10:04.767Z,15.70
2023-04-08T03:12:35.772Z,15.70
2023-04-08T03:15:07.547Z,15.70
2023-04-08T03:17:38.544Z,15.50
2023-04-08T03:20:10.101Z,15.50
2023-04-08T03:22:41.130Z,15.60
2023-04-08T03:25:12.189Z,15.60
2023-04-08T03:27:43.187Z,15.50
2023-04-08T03:30:14.344Z,15.60
2023-04-08T03:32:45.523Z,15.40
2023-04-08T03:35:16.450Z,15.30
2023-04-08T03:37:47.336Z,15.30
2023-04-08T03:40:18.390Z,15.20
2023-04-08T03:42:49.281Z,15.30
2023-04-08T03:45:20.348Z,15.50
2023-04-08T03:47:51.251Z,15.60
2023-04-08T03:50:22.293Z,15.30
2023-04-08T03:52:53.213Z,15.20
2023-04-08T03:55:24.172Z,15.30
2023-04-08T03:57:55.778Z,15.00
2023-04-08T04:00:26.778Z,15.30
2023-04-08T04:02:57.753Z,15.20
2023-04-08T04:05:29.197Z,15.10
2023-04-08T04:08:00.107Z,15.20
2023-04-08T04:10:31.040Z,15.20
2023-04-08T04:13:02.008Z,15.20
2023-04-08T04:15:33.156Z,15.40
2023-04-08T04:18:04.166Z,15.30
2023-04-08T04:20:35.110Z,15.30
2023-04-08T04:23:05.987Z,15.40
2023-04-08T04:25:36.965Z,15.10
2023-04-08T04:28:09.979Z,14.90
2023-04-08T04:30:40.905Z,14.80
2023-04-08T04:33:11.813Z,14.70
2023-04-08T04:35:42.731Z,14.60
2023-04-08T04:38:13.691Z,15.20
2023-04-08T04:40:44.824Z,15.20
2023-04-08T04:43:15.698Z,15.30
2023-04-08T04:45:46.625Z,15.10
2023-04-08T04:48:17.513Z,15.10
2023-04-08T04:50:56.445Z,14.90
2023-04-08T04:53:27.393Z,14.50
2023-04-08T04:55:58.330Z,14.70
2023-04-08T04:58:30.211Z,14.80
2023-04-08T05:01:01.393Z,14.90
2023-04-08T05:03:32.310Z,14.90
2023-04-08T05:06:03.288Z,14.80
2023-04-08T05:08:34.231Z,14.80
2023-04-08T05:11:09.670Z,14.80
2023-04-08T05:13:40.549Z,14.50
2023-04-08T05:16:11.434Z,14.70
2023-04-08T05:18:42.712Z,14.60
2023-04-08T05:21:13.595Z,14.70
2023-04-08T05:23:44.456Z,14.50
2023-04-08T05:26:16.546Z,14.70
2023-04-08T05:28:49.588Z,14.50
2023-04-08T05:31:21.467Z,14.70
2023-04-08T05:33:52.379Z,14.80
2023-04-08T05:36:23.338Z,14.90
2023-04-08T05:38:54.191Z,14.90
2023-04-08T05:41:25.070Z,15.00
2023-04-08T05:43:56.240Z,14.80
2023-04-08T05:46:27.143Z,15.00
2023-04-08T05:48:58.045Z,15.10
2023-04-08T05:51:28.916Z,14.90
2023-04-08T05:54:00.164Z,15.10
2023-04-08T05:56:32.323Z,14.80
2023-04-08T05:59:03.239Z,15.20
2023-04-08T06:01:34.268Z,14.50
2023-04-08T06:04:05.516Z,15.00
2023-04-08T06:06:39.910Z,15.20
2023-04-08T06:09:10.739Z,14.90
2023-04-08T06:11:41.784Z,14.90
2023-04-08T06:14:12.820Z,14.90
2023-04-08T06:16:44.018Z,14.30
2023-04-08T06:19:14.893Z,14.70
2023-04-08T06:21:45.890Z,14.90
2023-04-08T06:24:16.874Z,14.80
2023-04-08T06:26:48.087Z,15.00
2023-04-08T06:29:19.125Z,15.10
2023-04-08T06:31:51.206Z,15.10
2023-04-08T06:34:22.203Z,15.20
2023-04-08T06:36:53.067Z,15.10
2023-04-08T06:39:24.546Z,15.40
2023-04-08T06:41:55.480Z,15.20
2023-04-08T06:44:26.372Z,15.20
2023-04-08T06:46:57.239Z,15.50
2023-04-08T06:49:28.570Z,15.30
2023-04-08T06:51:59.492Z,15.50
2023-04-08T06:54:30.454Z,15.80
2023-04-08T06:57:01.368Z,15.80
2023-04-08T06:59:32.293Z,15.20
2023-04-08T07:02:03.410Z,15.50
2023-04-08T07:04:34.722Z,15.40
2023-04-08T07:07:05.638Z,15.30
2023-04-08T07:09:37.020Z,15.40
2023-04-08T07:12:07.930Z,15.50
2023-04-08T07:14:38.868Z,15.20
2023-04-08T07:17:09.903Z,15.50
2023-04-08T07:19:41.123Z,15.80
2023-04-08T07:22:12.016Z,15.50
2023-04-08T07:24:45.714Z,16.00
2023-04-08T07:27:17.442Z,16.00
2023-04-08T07:29:54.263Z,15.70
2023-04-08T07:32:25.267Z,15.90
2023-04-08T07:34:56.167Z,16.20
2023-04-08T07:37:27.932Z,16.00
2023-04-08T07:39:58.812Z,16.00
2023-04-08T07:42:29.710Z,16.10
2023-04-08T07:45:00.642Z,15.90
2023-04-08T07:47:31.555Z,15.90
2023-04-08T07:50:03.316Z,16.20
2023-04-08T07:52:34.794Z,16.30
2023-04-08T07:55:06.486Z,16.20
2023-04-08T07:57:37.623Z,16.60
2023-04-08T08:00:09.352Z,16.60
2023-04-08T08:02:40.601Z,16.30
2023-04-08T08:05:11.611Z,16.00
2023-04-08T08:07:42.626Z,16.00
2023-04-08T08:10:13.554Z,15.90
2023-04-08T08:12:44.437Z,16.20
2023-04-08T08:15:15.436Z,16.50
2023-04-08T08:17:46.581Z,16.20
2023-04-08T08:20:17.649Z,16.50
2023-04-08T08:22:57.081Z,16.20
2023-04-08T08:25:28.726Z,16.60
2023-04-08T08:27:59.617Z,16.80
2023-04-08T08:30:31.376Z,16.90
2023-04-08T08:33:03.930Z,16.30
2023-04-08T08:35:34.902Z,16.70
2023-04-08T08:38:05.886Z,16.60
2023-04-08T08:40:36.828Z,16.80
2023-04-08T08:43:08.734Z,16.80
2023-04-08T08:45:43.521Z,16.70
2023-04-08T08:48:14.874Z,16.60
2023-04-08T08:50:46.026Z,17.00
2023-04-08T08:53:17.190Z,16.70
2023-04-08T08:58:23.425Z,17.20
2023-04-08T09:00:54.689Z,17.10
2023-04-08T09:03:28.654Z,16.70
2023-04-08T09:06:02.202Z,17.20
2023-04-08T09:08:36.982Z,17.50
2023-04-08T09:11:26.575Z,17.40
2023-04-08T09:13:57.793Z,17.40
2023-04-08T09:16:30.857Z,17.40
2023-04-08T09:19:13.448Z,17.70
2023-04-08T09:21:45.022Z,17.50
2023-04-08T09:24:30.885Z,17.40
2023-04-08T09:27:02.466Z,17.00
2023-04-08T09:29:37.271Z,17.00
2023-04-08T09:32:10.260Z,16.90
2023-04-08T09:34:41.546Z,17.50
2023-04-08T09:37:12.433Z,17.40
2023-04-08T09:39:43.328Z,17.40
2023-04-08T09:42:14.591Z,17.30
2023-04-08T09:44:47.264Z,16.80
2023-04-08T09:47:27.466Z,17.10
2023-04-08T09:50:05.362Z,17.20
2023-04-08T09:52:51.620Z,17.70
2023-04-08T09:55:24.044Z,18.10
2023-04-08T09:58:17.090Z,17.70
2023-04-08T10:00:50.830Z,18.20
2023-04-08T10:03:37.588Z,18.10
2023-04-08T10:06:11.466Z,17.70
2023-04-08T10:08:43.279Z,17.60
2023-04-08T10:11:17.492Z,18.50
2023-04-08T10:13:49.188Z,18.30
2023-04-08T10:16:25.284Z,18.70
2023-04-08T10:18:57.006Z,18.00
2023-04-08T10:21:39.171Z,18.00
2023-04-08T10:24:13.673Z,18.00
2023-04-08T10:26:46.130Z,18.10
2023-04-08T10:29:19.930Z,17.90
2023-04-08T10:31:51.670Z,18.20
2023-04-08T10:34:27.552Z,18.30
2023-04-08T10:37:02.358Z,18.50
2023-04-08T10:39:33.274Z,17.90
2023-04-08T10:42:04.244Z,18.00
2023-04-08T10:44:35.371Z,18.30
2023-04-08T10:47:06.601Z,18.30
2023-04-08T10:49:37.958Z,18.00
2023-04-08T10:52:09.538Z,17.20
2023-04-08T10:54:48.443Z,17.40
2023-04-08T10:57:26.095Z,17.50
2023-04-08T10:59:57.216Z,17.50
2023-04-08T11:02:34.159Z,17.70
2023-04-08T11:05:05.754Z,17.70
2023-04-08T11:07:42.606Z,17.90
2023-04-08T11:10:13.505Z,17.90
2023-04-08T11:12:44.818Z,17.80
2023-04-08T11:15:15.971Z,17.70
2023-04-08T11:17:48.566Z,18.70
2023-04-08T11:20:19.622Z,18.90
2023-04-08T11:22:50.825Z,18.70
2023-04-08T11:25:22.378Z,18.60
2023-04-08T11:27:53.919Z,18.00
2023-04-08T11:30:25.206Z,18.40
2023-04-08T11:32:57.128Z,18.60
2023-04-08T11:35:31.400Z,18.50
2023-04-08T11:38:05.562Z,18.50
2023-04-08T11:40:36.761Z,18.60
2023-04-08T11:43:13.164Z,18.30
2023-04-08T11:45:44.150Z,18.00
2023-04-08T11:48:16.636Z,18.00
2023-04-08T11:50:47.555Z,18.10
2023-04-08T11:53:21.928Z,18.10
2023-04-08T11:55:52.994Z,18.30
2023-04-08T11:58:23.941Z,18.00
2023-04-08T12:00:55.193Z,18.00
2023-04-08T12:03:26.147Z,17.70
2023-04-08T12:05:57.135Z,18.10
2023-04-08T12:08:28.394Z,18.00
2023-04-08T12:11:09.323Z,18.20
2023-04-08T12:13:50.069Z,18.00
2023-04-08T12:16:21.490Z,17.70
2023-04-08T12:18:52.402Z,17.60
2023-04-08T12:21:23.372Z,18.10
2023-04-08T12:23:54.386Z,17.80
2023-04-08T12:26:25.382Z,18.00
2023-04-08T12:28:56.254Z,17.50
2023-04-08T12:31:28.628Z,17.80
2023-04-08T12:33:59.536Z,17.80
2023-04-08T12:36:31.532Z,17.70
2023-04-08T12:39:02.403Z,18.20
2023-04-08T12:41:33.567Z,18.00
2023-04-08T12:44:04.695Z,17.90
2023-04-08T12:46:35.868Z,18.10
2023-04-08T12:49:06.935Z,18.10
2023-04-08T12:51:38.289Z,17.90
2023-04-08T12:54:09.174Z,17.60
2023-04-08T12:56:40.371Z,17.90
2023-04-08T12:59:11.255Z,18.10
2023-04-08T13:01:43.319Z,17.80
2023-04-08T13:04:14.340Z,17.50
2023-04-08T13:06:45.856Z,18.10
2023-04-08T13:09:16.735Z,18.30
2023-04-08T13:11:47.644Z,17.90
2023-04-08T13:14:18.616Z,18.20
2023-04-08T13:16:49.592Z,17.90
2023-04-08T13:19:20.713Z,18.20
2023-04-08T13:21:51.593Z,18.40
2023-04-08T13:24:22.687Z,18.40
2023-04-08T13:26:53.623Z,17.90
2023-04-08T13:29:24.537Z,17.90
2023-04-08T13:31:55.533Z,17.80
2023-04-08T13:34:27.079Z,17.50
2023-04-08T13:36:58.482Z,18.00
2023-04-08T13:39:29.899Z,18.20
2023-04-08T13:42:03.027Z,18.00
2023-04-08T13:44:34.896Z,17.80
2023-04-08T13:47:06.878Z,18.00
2023-04-08T13:49:38.411Z,17.90
2023-04-08T13:52:09.780Z,18.40
2023-04-08T13:54:41.163Z,18.50
2023-04-08T13:57:12.364Z,18.20
2023-04-08T13:59:44.603Z,18.30
2023-04-08T14:02:15.966Z,17.90
2023-04-08T14:04:47.570Z,18.10
2023-04-08T14:07:19.952Z,17.70
2023-04-08T14:09:50.847Z,17.60
2023-04-08T14:12:21.730Z,18.20
2023-04-08T14:14:52.677Z,18.10
2023-04-08T14:17:23.606Z,18.20
2023-04-08T14:19:54.486Z,18.50
2023-04-08T14:22:25.445Z,18.00
2023-04-08T14:24:56.364Z,18.10
2023-04-08T14:27:28.000Z,18.40
2023-04-08T14:29:58.904Z,18.30
2023-04-08T14:32:29.834Z,18.60
2023-04-08T14:35:00.725Z,18.80
2023-04-08T14:37:31.682Z,18.30
2023-04-08T14:40:02.568Z,18.40
2023-04-08T14:42:33.456Z,18.30
2023-04-08T14:45:04.850Z,18.50
2023-04-08T14:47:36.052Z,18.70
2023-04-08T14:50:08.047Z,18.50
2023-04-08T14:52:38.965Z,18.00
2023-04-08T14:55:10.445Z,18.00
2023-04-08T14:57:41.392Z,18.10
2023-04-08T15:00:13.106Z,17.80
2023-04-08T15:02:44.137Z,18.00
2023-04-08T15:05:15.648Z,18.10
2023-04-08T15:07:47.315Z,18.60
2023-04-08T15:10:18.211Z,18.70
2023-04-08T15:12:49.146Z,18.30
2023-04-08T15:15:20.089Z,18.40
2023-04-08T15:17:52.175Z,18.40
2023-04-08T15:20:23.494Z,18.40
2023-04-08T15:22:54.387Z,18.20
2023-04-08T15:25:25.318Z,18.10
2023-04-08T15:27:56.413Z,17.80
2023-04-08T15:30:27.733Z,17.50
2023-04-08T15:32:58.714Z,17.30
2023-04-08T15:35:29.744Z,17.50
2023-04-08T15:38:01.206Z,18.00
2023-04-08T15:40:34.354Z,17.90
2023-04-08T15:43:05.276Z,17.50
2023-04-08T15:45:38.509Z,17.70
2023-04-08T15:48:11.851Z,17.50
2023-04-08T15:50:43.201Z,17.50
2023-04-08T15:53:14.613Z,17.40
2023-04-08T15:55:45.875Z,17.60
2023-04-08T15:58:17.576Z,18.00
2023-04-08T16:00:48.985Z,18.20
2023-04-08T16:03:20.489Z,17.80
2023-04-08T16:05:52.237Z,18.10
2023-04-08T16:08:23.761Z,18.00
2023-04-08T16:11:01.910Z,17.90
2023-04-08T16:13:34.217Z,17.80
2023-04-08T16:16:05.428Z,17.30
2023-04-08T16:18:36.352Z,17.00
2023-04-08T16:21:07.985Z,17.40
2023-04-08T16:23:38.954Z,17.20
2023-04-08T16:26:10.000Z,17.00
2023-04-08T16:28:40.959Z,16.90
2023-04-08T16:31:12.103Z,17.40
2023-04-08T16:33:43.473Z,17.30
2023-04-08T16:36:15.053Z,17.60
2023-04-08T16:38:46.006Z,17.40
2023-04-08T16:41:16.968Z,17.20
2023-04-08T16:43:48.657Z,17.30
2023-04-08T16:46:19.741Z,17.50
2023-04-08T16:48:50.597Z,17.20
2023-04-08T16:51:21.636Z,17.40
2023-04-08T16:53:52.817Z,17.40
2023-04-08T16:56:24.925Z,17.20
2023-04-08T16:58:56.055Z,17.10
2023-04-08T17:01:27.214Z,17.40
2023-04-08T17:03:58.411Z,17.80
2023-04-08T17:06:31.141Z,17.60
2023-04-08T17:09:03.958Z,17.50
2023-04-08T17:11:35.142Z,17.30
2023-04-08T17:14:06.311Z,17.40
2023-04-08T17:16:37.315Z,17.50
2023-04-08T17:19:08.319Z,17.60
2023-04-08T17:21:39.816Z,17.30
2023-04-08T17:24:11.101Z,17.40
2023-04-08T17:26:42.741Z,17.40
2023-04-08T17:29:13.595Z,17.50
2023-04-08T17:31:44.791Z,17.20
2023-04-08T17:34:16.271Z,17.00
2023-04-08T17:36:47.240Z,17.20
2023-04-08T17:39:18.560Z,17.30
2023-04-08T17:41:49.654Z,17.10
2023-04-08T17:44:21.410Z,17.20
2023-04-08T17:46:52.499Z,17.10
2023-04-08T17:49:23.776Z,17.30
2023-04-08T17:51:56.081Z,17.30
2023-04-08T17:54:26.964Z,17.20
2023-04-08T17:56:58.069Z,17.20
2023-04-08T17:59:28.970Z,17.00
2023-04-08T18:01:59.880Z,16.90
2023-04-08T18:04:30.868Z,17.10
2023-04-08T18:07:04.539Z,17.10
2023-04-08T18:09:35.579Z,17.10
2023-04-08T18:12:06.788Z,17.10
2023-04-08T18:14:37.835Z,17.00
2023-04-08T18:17:09.097Z,17.10
2023-04-08T18:19:40.246Z,16.90
2023-04-08T18:22:11.413Z,16.80
2023-04-08T18:24:42.404Z,16.90
2023-04-08T18:27:13.273Z,16.80
2023-04-08T18:29:44.146Z,17.00
2023-04-08T18:32:15.042Z,17.00
2023-04-08T18:34:47.016Z,16.80
2023-04-08T18:37:20.056Z,16.90
2023-04-08T18:39:51.711Z,16.80
2023-04-08T18:42:22.750Z,16.80
2023-04-08T18:44:53.739Z,16.80
2023-04-08T18:47:24.750Z,16.90
2023-04-08T18:49:57.195Z,16.80
2023-04-08T18:52:28.097Z,16.80
2023-04-08T18:55:02.753Z,16.70
2023-04-08T18:57:34.510Z,16.70
2023-04-08T19:00:06.670Z,16.80
2023-04-08T19:02:37.917Z,16.80
2023-04-08T19:05:09.359Z,16.80
2023-04-08T19:07:40.932Z,16.60
2023-04-08T19:10:11.881Z,16.70
2023-04-08T19:12:42.735Z,16.80
2023-04-08T19:15:14.083Z,16.80
2023-04-08T19:17:45.025Z,16.80
2023-04-08T19:20:16.088Z,16.60
2023-04-08T19:22:48.378Z,16.70
2023-04-08T19:25:20.158Z,16.70
2023-04-08T19:27:51.172Z,16.90
2023-04-08T19:30:22.137Z,16.60
2023-04-08T19:32:53.848Z,16.60
2023-04-08T19:35:25.289Z,16.60
2023-04-08T19:37:56.352Z,16.50
2023-04-08T19:40:28.054Z,16.70
2023-04-08T19:42:58.963Z,16.60
2023-04-08T19:45:29.836Z,16.40
2023-04-08T19:48:01.354Z,16.40
2023-04-08T19:50:32.576Z,16.60
2023-04-08T19:53:03.614Z,16.70
2023-04-08T19:55:37.380Z,16.40
2023-04-08T19:58:08.789Z,16.70
2023-04-08T20:00:40.164Z,16.70
2023-04-08T20:03:11.314Z,16.60
2023-04-08T20:05:42.928Z,16.50
2023-04-08T20:08:13.868Z,16.30
2023-04-08T20:10:44.868Z,16.50
2023-04-08T20:13:15.963Z,16.50
2023-04-08T20:15:46.891Z,16.30
2023-04-08T20:18:18.114Z,16.70
2023-04-08T20:20:49.073Z,16.70
2023-04-08T20:23:20.951Z,16.70
2023-04-08T20:25:52.265Z,16.70
2023-04-08T20:28:23.721Z,16.60
2023-04-08T20:30:54.646Z,16.60
2023-04-08T20:33:25.694Z,16.40
2023-04-08T20:35:57.648Z,16.60
2023-04-08T20:38:29.048Z,16.50
2023-04-08T20:40:59.938Z,16.60
2023-04-08T20:43:31.584Z,16.70
2023-04-08T20:46:02.465Z,16.50
2023-04-08T20:48:33.442Z,16.40
2023-04-08T20:51:04.414Z,16.30
2023-04-08T20:53:36.253Z,16.30
2023-04-08T20:56:07.773Z,16.40
2023-04-08T20:58:38.641Z,16.50
2023-04-08T21:01:10.992Z,16.20
2023-04-08T21:03:42.047Z,16.20
2023-04-08T21:06:21.229Z,16.10
2023-04-08T21:08:52.616Z,16.10
2023-04-08T21:11:23.678Z,16.00
2023-04-08T21:13:54.557Z,16.20
2023-04-08T21:16:25.461Z,16.20
2023-04-08T21:18:58.539Z,16.20
2023-04-08T21:21:29.513Z,16.10
2023-04-08T21:24:00.681Z,16.10
2023-04-08T21:26:31.610Z,15.90
2023-04-08T21:29:02.680Z,15.70
2023-04-08T21:31:34.815Z,15.80
2023-04-08T21:34:06.112Z,15.70
2023-04-08T21:36:37.071Z,15.70
2023-04-08T21:39:07.993Z,15.50
2023-04-08T21:41:38.906Z,15.30
2023-04-08T21:44:10.389Z,15.20
2023-04-08T21:46:41.526Z,15.30
2023-04-08T21:49:13.785Z,15.30
2023-04-08T21:51:44.664Z,15.40
2023-04-08T21:54:15.574Z,15.40
2023-04-08T21:56:46.560Z,15.30
2023-04-08T21:59:17.487Z,15.20
2023-04-08T22:01:48.821Z,15.10
2023-04-08T22:04:20.222Z,15.30
2023-04-08T22:06:51.306Z,15.30
2023-04-08T22:09:22.214Z,15.10
2023-04-08T22:11:53.772Z,14.70
2023-04-08T22:14:24.717Z,14.90
2023-04-08T22:16:58.312Z,15.20
2023-04-08T22:19:29.240Z,14.80
2023-04-08T22:22:00.203Z,15.00
2023-04-08T22:24:31.129Z,14.80
2023-04-08T22:27:02.301Z,14.80
2023-04-08T22:29:33.930Z,14.90
2023-04-08T22:32:05.457Z,15.10
2023-04-08T22:34:36.738Z,15.00
2023-04-08T22:37:07.678Z,15.00
2023-04-08T22:39:38.539Z,14.90
2023-04-08T22:42:09.439Z,14.90
2023-04-08T22:44:40.315Z,14.80
2023-04-08T22:47:11.323Z,14.80
2023-04-08T22:49:42.772Z,14.80
2023-04-08T22:52:18.247Z,14.60
2023-04-08T22:54:49.124Z,14.40
2023-04-08T22:57:20.038Z,14.40
2023-04-08T22:59:51.078Z,14.70
2023-04-08T23:02:21.983Z,14.80
2023-04-08T23:04:56.170Z,14.90
2023-04-08T23:07:27.054Z,14.90
2023-04-08T23:10:15.079Z,15.00
2023-04-08T23:12:45.928Z,15.10
2023-04-08T23:15:17.211Z,15.10
2023-04-08T23:17:48.094Z,14.70
2023-04-08T23:20:19.050Z,14.90
2023-04-08T23:22:49.906Z,14.90
2023-04-08T23:25:20.777Z,15.10
2023-04-08T23:27:51.835Z,14.90
2023-04-08T23:30:23.084Z,14.90
2023-04-08T23:32:54.406Z,14.70
2023-04-08T23:35:25.467Z,14.50
2023-04-08T23:37:56.583Z,14.60
2023-04-08T23:40:27.516Z,14.80
2023-04-08T23:42:58.488Z,14.70
2023-04-08T23:45:29.355Z,14.90
2023-04-08T23:48:00.353Z,14.90
2023-04-08T23:50:31.308Z,15.10
2023-04-08T23:53:02.197Z,15.00
2023-04-08T23:55:33.096Z,15.00
2023-04-08T23:58:03.985Z,15.00
